Time;durP1;ratioP1;P1;durP2;ratioP2;P2;SDS_P1;SDS_P2;PMS_P1;PMS_P2;Temp;Humidity;BMP_temperature;BMP_pressure;BME280_temperature;BME280_humidity;BME280_pressure;Samples;Min_cycle;Max_cycle;Signal;HPM_P1;HPM_P2
2022/05/13 00:01:55;;;;;;;9.27;3.53;;;;;;;8.91;100.00;101132.88;4988434;28;20038;-73
2022/05/13 00:04:21;;;;;;;14.80;4.20;;;;;;;8.85;100.00;101132.47;4972195;28;20130;-74
2022/05/13 00:06:47;;;;;;;9.93;3.57;;;;;;;8.82;100.00;101134.56;4972066;28;20070;-73
2022/05/13 00:09:13;;;;;;;10.63;4.13;;;;;;;8.76;100.00;101127.16;4988107;28;20125;-73
2022/05/13 00:11:38;;;;;;;18.13;4.22;;;;;;;8.69;100.00;101126.88;4987584;28;20027;-73
2022/05/13 00:14:05;;;;;;;12.40;4.93;;;;;;;8.67;100.00;101126.16;4987969;28;20085;-72
2022/05/13 00:16:34;;;;;;;9.30;3.97;;;;;;;8.64;100.00;101126.47;4987742;28;20812;-74
2022/05/13 00:19:00;;;;;;;15.15;4.63;;;;;;;8.68;100.00;101122.50;4987649;28;20050;-72
2022/05/13 00:21:26;;;;;;;11.50;4.32;;;;;;;8.73;100.00;101122.09;4989060;28;20026;-73
2022/05/13 00:23:51;;;;;;;13.07;4.40;;;;;;;8.75;100.00;101117.47;4989121;28;20061;-73
2022/05/13 00:26:17;;;;;;;16.87;3.90;;;;;;;8.78;100.00;101112.72;4989300;28;20309;-73
2022/05/13 00:28:42;;;;;;;11.77;4.63;;;;;;;8.66;100.00;101098.72;4988842;28;20030;-72
2022/05/13 00:31:07;;;;;;;11.23;4.27;;;;;;;8.63;100.00;101098.97;4988739;28;20018;-73
2022/05/13 00:33:33;;;;;;;9.77;4.07;;;;;;;8.70;100.00;101099.25;4988812;28;20045;-73
2022/05/13 00:35:59;;;;;;;11.53;4.40;;;;;;;8.65;100.00;101097.03;4987609;28;20026;-73
2022/05/13 00:38:25;;;;;;;18.15;5.97;;;;;;;8.63;100.00;101103.47;4987056;28;20045;-73
2022/05/13 00:40:50;;;;;;;16.38;4.50;;;;;;;8.59;100.00;101102.06;4988466;28;20029;-74
2022/05/13 00:43:37;;;;;;;9.87;4.10;;;;;;;8.51;100.00;101099.28;4987407;28;20530;-74
2022/05/13 00:46:03;;;;;;;16.35;4.80;;;;;;;8.40;100.00;101100.25;4973750;28;20104;-74
2022/05/13 00:48:29;;;;;;;12.70;5.90;;;;;;;8.44;100.00;101110.47;4988607;28;20042;-74
2022/05/13 00:50:55;;;;;;;13.90;4.78;;;;;;;8.41;100.00;101100.13;4988316;28;20045;-73
2022/05/13 00:53:22;;;;;;;12.80;6.38;;;;;;;8.36;100.00;101099.66;4986996;28;20023;-74
2022/05/13 00:55:47;;;;;;;;;;;;;;;8.35;100.00;101099.81;4985748;28;20412;-73
2022/05/13 00:58:15;;;;;;;;;;;;;;;8.29;100.00;101100.34;4987335;28;19914;-73
2022/05/13 01:00:41;;;;;;;13.95;5.93;;;;;;;8.27;100.00;101102.34;4988269;28;20050;-74
2022/05/13 01:03:07;;;;;;;14.40;5.82;;;;;;;8.08;100.00;101103.13;4987285;28;20535;-74
2022/05/13 01:05:34;;;;;;;7.78;5.03;;;;;;;7.99;100.00;101104.81;4987252;28;20053;-73
2022/05/13 01:08:04;;;;;;;9.80;5.57;;;;;;;7.91;100.00;101096.66;4988360;28;20157;-73
2022/05/13 01:10:32;;;;;;;17.55;5.68;;;;;;;7.75;100.00;101108.66;4987211;28;20038;-74
2022/05/13 01:12:59;;;;;;;14.52;5.97;;;;;;;7.72;100.00;101105.41;4988029;28;20050;-73
2022/05/13 01:15:31;;;;;;;19.08;7.55;;;;;;;7.61;100.00;101112.53;4987969;28;20165;-73
2022/05/13 01:18:05;;;;;;;15.52;6.00;;;;;;;7.60;100.00;101107.34;4988063;28;20499;-73
2022/05/13 01:20:48;;;;;;;15.13;6.28;;;;;;;7.53;100.00;101116.81;4988098;28;20041;-73
2022/05/13 01:23:21;;;;;;;16.58;7.90;;;;;;;7.53;100.00;101117.66;4986880;28;20534;-73
2022/05/13 01:25:52;;;;;;;13.50;5.97;;;;;;;7.50;100.00;101115.28;4986817;28;20042;-74
2022/05/13 01:28:34;;;;;;;15.63;6.18;;;;;;;7.45;100.00;101122.81;4986729;28;20038;-73
2022/05/13 01:31:03;;;;;;;11.50;6.50;;;;;;;7.44;100.00;101118.47;4986274;28;20104;-73
2022/05/13 01:33:29;;;;;;;11.80;6.97;;;;;;;7.50;100.00;101115.28;4970648;28;20026;-73
2022/05/13 01:35:57;;;;;;;16.10;6.13;;;;;;;7.52;100.00;101112.50;4986952;28;20503;-74
2022/05/13 01:38:26;;;;;;;15.90;6.38;;;;;;;7.48;100.00;101111.06;4970611;28;20106;-73
2022/05/13 01:40:52;;;;;;;15.02;7.38;;;;;;;7.50;100.00;101112.63;4986426;28;20553;-74
2022/05/13 01:43:18;;;;;;;18.63;8.48;;;;;;;7.47;100.00;101115.56;4970366;28;20029;-73
2022/05/13 01:45:44;;;;;;;17.52;8.82;;;;;;;7.48;100.00;101113.72;4987665;28;20038;-73
2022/05/13 01:48:10;;;;;;;14.53;6.80;;;;;;;7.52;100.00;101102.72;4970322;28;20080;-73
2022/05/13 01:50:39;;;;;;;20.40;7.10;;;;;;;7.56;100.00;101106.78;4986618;28;20048;-73
2022/05/13 01:53:06;;;;;;;14.52;7.25;;;;;;;7.60;100.00;101104.69;4977487;28;20656;-73
2022/05/13 01:55:31;;;;;;;;;;;;;;;7.65;100.00;101104.28;4970538;28;20030;-73
2022/05/13 01:57:57;;;;;;;;;;;;;;;7.69;100.00;101108.34;4987686;28;19941;-74
2022/05/13 02:00:22;;;;;;;10.77;6.40;;;;;;;7.68;100.00;101102.22;4987220;28;20267;-73
2022/05/13 02:05:32;;;;;;;21.02;7.95;;;;;;;7.67;100.00;101105.00;4982877;28;20072;-73
2022/05/13 02:07:58;;;;;;;24.98;8.00;;;;;;;7.69;100.00;101103.03;4985525;28;20014;-73
2022/05/13 02:10:23;;;;;;;16.27;7.53;;;;;;;7.72;100.00;101108.91;4985962;28;20041;-74
2022/05/13 02:12:49;;;;;;;16.40;6.97;;;;;;;7.81;100.00;101108.09;4983859;28;20081;-73
2022/05/13 02:15:14;;;;;;;17.67;7.47;;;;;;;7.87;100.00;101104.06;4986109;28;20104;-73
2022/05/13 02:17:40;;;;;;;13.32;6.72;;;;;;;7.94;100.00;101091.91;4987132;28;20980;-73
2022/05/13 02:20:06;;;;;;;14.40;7.37;;;;;;;8.01;100.00;101077.09;4986747;28;20045;-74
2022/05/13 02:22:32;;;;;;;14.10;6.93;;;;;;;8.02;100.00;101072.63;4985456;28;20387;-73
2022/05/13 02:24:57;;;;;;;20.63;6.77;;;;;;;8.08;100.00;101081.84;4985869;28;20057;-73
2022/05/13 02:27:23;;;;;;;13.48;7.47;;;;;;;8.15;100.00;101088.31;4985909;28;20026;-73
2022/05/13 02:29:48;;;;;;;14.60;7.80;;;;;;;8.17;100.00;101081.03;4986547;28;20042;-73
2022/05/13 02:32:13;;;;;;;11.40;6.23;;;;;;;8.24;100.00;101072.38;4985671;28;20034;-74
2022/05/13 02:34:39;;;;;;;12.20;7.67;;;;;;;8.24;100.00;101059.06;4986651;28;20045;-73
2022/05/13 02:37:04;;;;;;;9.77;6.30;;;;;;;8.28;100.00;101051.63;4986789;28;20048;-74
2022/05/13 02:39:30;;;;;;;10.55;6.10;;;;;;;8.35;100.00;101054.56;4986657;28;20146;-74
2022/05/13 02:41:56;;;;;;;13.25;6.13;;;;;;;8.41;100.00;101046.06;4985227;28;20050;-74
2022/05/13 02:44:22;;;;;;;14.37;5.80;;;;;;;8.38;100.00;101044.50;4985403;28;20107;-74
2022/05/13 02:46:48;;;;;;;10.80;5.72;;;;;;;8.42;100.00;101037.94;4985762;28;20037;-74
2022/05/13 02:49:13;;;;;;;15.57;5.13;;;;;;;8.47;100.00;101037.50;4985230;28;20038;-73
2022/05/13 02:51:40;;;;;;;16.60;6.53;;;;;;;8.49;100.00;101037.38;4984946;28;20391;-74
2022/05/13 02:54:07;;;;;;;14.27;5.88;;;;;;;8.47;100.00;101028.69;4985416;28;20053;-74
2022/05/13 02:56:32;;;;;;;16.23;5.43;;;;;;;8.45;100.00;101026.16;4982643;28;20814;-74
2022/05/13 02:58:58;;;;;;;14.00;5.17;;;;;;;8.56;100.00;101022.53;4984727;28;20038;-73
2022/05/13 03:01:23;;;;;;;16.40;6.68;;;;;;;8.57;100.00;101005.56;4982967;28;20030;-74
2022/05/13 03:03:50;;;;;;;14.40;6.00;;;;;;;8.61;100.00;101014.94;4985014;28;20042;-74
2022/05/13 03:06:15;;;;;;;;;;;;;;;8.66;100.00;101015.34;4987298;28;20065;-74
2022/05/13 03:08:41;;;;;;;;;;;;;;;8.62;100.00;101006.81;4985393;28;19960;-74
2022/05/13 03:11:07;;;;;;;;;;;;;;;8.62;100.00;101003.31;4986638;28;20331;-74
2022/05/13 03:13:33;;;;;;;14.30;6.65;;;;;;;8.66;100.00;101018.88;4985297;28;19920;-73
2022/05/13 03:16:14;;;;;;;17.65;7.25;;;;;;;8.63;100.00;101008.50;4985179;28;20054;-73
2022/05/13 03:18:41;;;;;;;24.25;9.27;;;;;;;8.65;100.00;101005.69;4985249;28;20223;-75
2022/05/13 03:21:08;;;;;;;16.65;9.32;;;;;;;8.61;100.00;101004.28;4981257;28;20468;-73
2022/05/13 03:23:33;;;;;;;17.83;8.77;;;;;;;8.60;100.00;101013.28;4980648;28;20038;-73
2022/05/13 03:25:59;;;;;;;16.87;7.63;;;;;;;8.60;100.00;101013.28;4981541;28;20464;-75
2022/05/13 03:28:25;;;;;;;13.10;6.60;;;;;;;8.63;100.00;101007.66;4982151;28;20034;-74
2022/05/13 03:30:51;;;;;;;19.48;8.20;;;;;;;8.63;100.00;101008.50;4983560;28;20080;-74
2022/05/13 03:33:18;;;;;;;17.33;7.80;;;;;;;8.64;100.00;101009.34;4985207;28;20373;-73
2022/05/13 03:35:43;;;;;;;16.45;8.43;;;;;;;8.72;100.00;101011.28;4985017;28;20463;-74
2022/05/13 03:38:09;;;;;;;16.93;7.60;;;;;;;8.79;100.00;101009.72;4984712;28;20114;-73
2022/05/13 03:40:36;;;;;;;21.07;8.13;;;;;;;8.78;100.00;101000.91;4985971;28;20030;-74
2022/05/13 03:43:03;;;;;;;16.88;7.80;;;;;;;8.78;100.00;100995.59;4984448;28;20952;-73
2022/05/13 03:45:30;;;;;;;12.88;6.57;;;;;;;8.76;100.00;100986.91;4984745;28;20118;-74
2022/05/13 03:47:56;;;;;;;15.80;7.28;;;;;;;8.80;100.00;100982.09;4985745;28;20108;-74
2022/05/13 03:50:22;;;;;;;19.57;8.40;;;;;;;8.83;100.00;100974.69;4984808;28;20142;-74
2022/05/13 03:52:47;;;;;;;12.93;7.25;;;;;;;8.91;100.00;100973.94;4984100;28;20404;-74
2022/05/13 03:55:13;;;;;;;15.90;7.30;;;;;;;8.91;100.00;100979.28;4986032;28;20102;-74
2022/05/13 03:57:39;;;;;;;17.73;7.35;;;;;;;8.97;100.00;100983.19;4984648;28;20041;-74
2022/05/13 04:00:06;;;;;;;20.65;8.00;;;;;;;9.00;100.00;100974.91;4985511;28;20026;-73
2022/05/13 04:02:32;;;;;;;17.02;7.00;;;;;;;9.03;100.00;100977.25;4984443;28;20038;-74
2022/05/13 04:10:26;;;;;;;17.35;6.93;;;;;;;9.06;100.00;100967.16;4985775;28;20437;-75
2022/05/13 04:18:19;;;;;;;18.05;7.70;;;;;;;9.18;100.00;100965.16;4989108;28;20041;-74
2022/05/13 04:20:47;;;;;;;18.23;7.77;;;;;;;9.26;100.00;100956.41;4986094;28;20034;-74
2022/05/13 04:23:13;;;;;;;15.07;6.65;;;;;;;9.31;100.00;100967.44;4988996;28;20077;-74
2022/05/13 04:25:38;;;;;;;17.23;7.30;;;;;;;9.26;100.00;100964.41;4987982;28;20034;-74
2022/05/13 04:28:04;;;;;;;15.07;6.70;;;;;;;9.28;100.00;100955.25;4988857;28;20038;-74
2022/05/13 04:30:29;;;;;;;14.07;6.83;;;;;;;9.38;100.00;100963.19;4971762;28;20032;-74
2022/05/13 04:32:55;;;;;;;17.87;6.60;;;;;;;9.39;100.00;100956.91;4988543;28;20049;-74
2022/05/13 04:35:20;;;;;;;16.63;6.97;;;;;;;9.36;100.00;100943.03;4987489;28;20084;-74
2022/05/13 04:37:45;;;;;;;21.07;7.80;;;;;;;9.38;100.00;100951.69;4984993;28;20047;-74
2022/05/13 04:40:11;;;;;;;20.03;8.07;;;;;;;9.36;100.00;100956.34;4971045;28;20030;-74
2022/05/13 04:42:52;;;;;;;18.08;8.00;;;;;;;9.41;100.00;100951.41;4981232;28;20034;-74
2022/05/13 04:45:24;;;;;;;21.65;7.13;;;;;;;9.44;100.00;100959.13;4984452;28;20550;-74
2022/05/13 04:50:39;;;;;;;14.50;6.40;;;;;;;9.44;100.00;100951.13;4984065;28;20062;-74
2022/05/13 04:53:06;;;;;;;15.18;6.38;;;;;;;9.43;100.00;100957.41;4987848;28;20022;-73
2022/05/13 04:55:32;;;;;;;17.40;6.13;;;;;;;9.46;100.00;100965.13;4970737;28;20169;-75
2022/05/13 04:57:57;;;;;;;15.07;7.05;;;;;;;9.45;100.00;100974.94;4988137;28;20593;-74
2022/05/13 05:00:23;;;;;;;20.70;7.73;;;;;;;9.52;100.00;100973.34;4988293;28;20042;-73
2022/05/13 05:02:48;;;;;;;13.57;6.07;;;;;;;9.58;100.00;100973.75;4986938;28;20026;-74
2022/05/13 05:05:14;;;;;;;21.07;6.77;;;;;;;9.64;100.00;100984.63;4987169;28;20380;-73
2022/05/13 05:07:39;;;;;;;9.80;5.47;;;;;;;9.66;100.00;100984.50;4970886;28;20027;-74
2022/05/13 05:10:05;;;;;;;11.57;5.70;;;;;;;9.66;100.00;100985.31;4988034;28;20037;-73
2022/05/13 05:12:30;;;;;;;15.00;6.30;;;;;;;9.70;100.00;100985.88;4988204;28;20034;-75
2022/05/13 05:14:57;;;;;;;18.23;6.53;;;;;;;9.68;100.00;100982.50;4986907;28;20534;-74
2022/05/13 05:17:23;;;;;;;19.60;5.75;;;;;;;9.76;100.00;100989.75;4986740;28;20379;-74
2022/05/13 05:19:49;;;;;;;19.65;7.10;;;;;;;9.77;100.00;100986.13;4983566;28;20042;-74
2022/05/13 05:22:14;;;;;;;11.93;5.03;;;;;;;9.73;100.00;100996.22;4970535;28;20027;-73
2022/05/13 05:24:39;;;;;;;18.23;6.60;;;;;;;9.77;100.00;100997.63;4986726;28;20041;-74
2022/05/13 05:27:09;;;;;;;11.17;5.13;;;;;;;9.76;100.00;100987.09;4988277;28;20496;-74
2022/05/13 05:29:35;;;;;;;15.85;6.10;;;;;;;9.78;100.00;100985.09;4986517;28;20842;-74
2022/05/13 05:32:01;;;;;;;14.90;5.75;;;;;;;9.80;100.00;100986.63;4987732;28;20036;-74
2022/05/13 05:34:26;;;;;;;16.53;5.77;;;;;;;9.81;100.00;100990.13;4988083;28;20065;-74
2022/05/13 05:36:51;;;;;;;10.93;5.53;;;;;;;9.89;100.00;100990.22;4987681;28;20018;-73
2022/05/13 05:39:17;;;;;;;14.90;5.50;;;;;;;9.92;100.00;100989.91;4986316;28;20038;-73
2022/05/13 05:41:42;;;;;;;12.27;6.50;;;;;;;9.93;100.00;100991.59;4986793;28;20656;-74
2022/05/13 05:44:07;;;;;;;12.47;5.37;;;;;;;9.94;100.00;100982.59;4987387;28;20395;-74
2022/05/13 05:46:33;;;;;;;13.03;4.53;;;;;;;10.00;100.00;100975.84;4983851;28;20045;-74
2022/05/13 05:48:58;;;;;;;15.17;5.93;;;;;;;9.96;100.00;100975.28;4982400;28;20022;-74
2022/05/13 05:51:23;;;;;;;12.30;5.10;;;;;;;9.99;100.00;100972.31;4982922;28;20038;-74
2022/05/13 05:59:17;;;;;;;14.73;5.45;;;;;;;10.11;100.00;100965.75;4982618;28;20512;-74
2022/05/13 06:01:42;;;;;;;17.27;4.97;;;;;;;10.11;100.00;100957.75;4980550;28;20065;-74
2022/05/13 06:04:08;;;;;;;24.07;6.97;;;;;;;10.12;100.00;100943.41;4981992;28;20037;-74
2022/05/13 06:06:33;;;;;;;14.70;4.60;;;;;;;10.17;100.00;100942.94;4980702;28;20026;-74
2022/05/13 06:08:59;;;;;;;9.40;4.70;;;;;;;10.22;100.00;100939.81;4982236;28;20026;-73
2022/05/13 06:11:25;;;;;;;;;;;;;;;10.23;100.00;100929.00;4982731;28;20555;-74
2022/05/13 06:13:52;;;;;;;;;;;;;;;10.18;100.00;100917.94;4981776;28;19922;-74
2022/05/13 06:16:17;;;;;;;12.38;5.68;;;;;;;10.20;100.00;100910.63;4980658;28;19937;-74
2022/05/13 06:18:43;;;;;;;8.90;5.20;;;;;;;10.24;100.00;100903.97;4980458;28;20042;-74
2022/05/13 06:21:08;;;;;;;12.05;4.85;;;;;;;10.23;100.00;100909.47;4965553;28;20022;-74
2022/05/13 06:23:35;;;;;;;10.77;4.70;;;;;;;10.19;100.00;100916.97;4979960;28;20045;-74
2022/05/13 06:26:01;;;;;;;12.27;4.32;;;;;;;10.22;100.00;100923.81;4969962;28;20026;-74
2022/05/13 06:28:27;;;;;;;15.77;6.53;;;;;;;10.27;100.00;100916.16;4982050;28;20084;-74
2022/05/13 06:30:53;;;;;;;14.82;5.38;;;;;;;10.31;100.00;100922.91;4980914;28;20043;-74
2022/05/13 06:33:18;;;;;;;15.93;4.83;;;;;;;10.38;100.00;100926.63;4982608;28;20464;-74
2022/05/13 06:35:44;;;;;;;9.03;5.57;;;;;;;10.28;100.00;100924.06;4981625;28;20118;-74
2022/05/13 06:38:20;;;;;;;9.25;5.07;;;;;;;10.46;100.00;100928.50;4981434;28;20034;-74
2022/05/13 06:40:46;;;;;;;;;;;;;;;10.61;100.00;100926.94;4980335;28;20062;-75
2022/05/13 06:43:11;;;;;;;;;;;;;;;10.52;100.00;100912.69;4982515;28;20403;-74
2022/05/13 06:45:36;;;;;;;;;;;;;;;10.46;100.00;100913.31;4982776;28;19945;-74
2022/05/13 06:48:04;;;;;;;12.40;4.43;;;;;;;10.53;100.00;100909.03;4985393;28;19990;-74
2022/05/13 06:50:29;;;;;;;10.85;5.18;;;;;;;10.44;100.00;100909.13;4985061;28;20519;-74
2022/05/13 06:52:55;;;;;;;13.07;4.80;;;;;;;10.60;100.00;100913.72;4986070;28;20049;-73
2022/05/13 06:55:20;;;;;;;7.30;4.47;;;;;;;10.62;100.00;100917.91;4985331;28;20038;-74
2022/05/13 06:57:45;;;;;;;10.27;5.50;;;;;;;10.68;100.00;100925.31;4978982;28;20031;-75
2022/05/13 07:00:12;;;;;;;14.90;5.23;;;;;;;10.76;100.00;100929.84;4980848;28;20484;-74
2022/05/13 07:02:37;;;;;;;;;;;;;;;10.76;100.00;100937.84;4979693;28;20121;-74
2022/05/13 07:05:03;;;;;;;;;;;;;;;10.75;100.00;100934.34;4982627;28;20421;-74
2022/05/13 07:07:28;;;;;;;18.27;5.15;;;;;;;10.77;100.00;100939.53;4980132;28;19910;-74
2022/05/13 07:09:54;;;;;;;11.00;4.70;;;;;;;10.84;100.00;100943.25;4980031;28;21218;-74
2022/05/13 07:12:19;;;;;;;19.67;5.07;;;;;;;10.78;100.00;100930.53;4980845;28;20042;-74
2022/05/13 07:14:44;;;;;;;14.03;4.57;;;;;;;10.78;100.00;100933.19;4980497;28;20043;-74
2022/05/13 07:17:10;;;;;;;13.30;4.17;;;;;;;10.79;100.00;100932.19;4981840;28;20034;-74
2022/05/13 07:19:35;;;;;;;13.50;4.13;;;;;;;10.82;100.00;100929.22;4979449;28;20038;-74
2022/05/13 07:22:00;;;;;;;19.00;4.70;;;;;;;10.85;100.00;100933.41;4981875;28;20062;-73
2022/05/13 07:24:27;;;;;;;16.33;5.17;;;;;;;10.86;100.00;100929.72;4981679;28;20071;-74
2022/05/13 07:26:52;;;;;;;;;;;;;;;10.89;100.00;100935.59;4979748;28;20027;-74
2022/05/13 07:29:17;;;;;;;;;;;;;;;10.99;100.00;100938.97;4982145;28;19968;-74
2022/05/13 07:31:43;;;;;;;8.77;4.13;;;;;;;10.96;100.00;100939.28;4978644;28;20272;-74
2022/05/13 07:34:08;;;;;;;7.43;4.70;;;;;;;11.11;100.00;100939.50;4982572;28;20038;-74
2022/05/13 07:36:35;;;;;;;13.25;5.20;;;;;;;11.12;100.00;100943.88;4980565;28;20026;-74
2022/05/13 07:41:44;;;;;;;11.30;4.93;;;;;;;11.23;100.00;100932.03;4979776;28;20034;-74
2022/05/13 07:44:10;;;;;;;12.47;4.67;;;;;;;11.27;100.00;100941.41;4981025;28;20028;-75
2022/05/13 07:46:36;;;;;;;10.80;5.40;;;;;;;11.25;100.00;100932.72;4978680;28;20042;-74
2022/05/13 07:49:01;;;;;;;14.27;4.93;;;;;;;11.41;100.00;100935.44;4984100;28;20030;-74
2022/05/13 07:51:26;;;;;;;12.27;5.23;;;;;;;11.48;100.00;100943.66;4986574;28;20081;-74
2022/05/13 07:53:53;;;;;;;14.23;6.33;;;;;;;11.54;100.00;100939.47;4984177;28;20073;-73
2022/05/13 07:56:19;;;;;;;13.23;4.93;;;;;;;11.75;100.00;100953.22;4985052;28;20046;-74
2022/05/13 07:58:45;;;;;;;20.13;7.18;;;;;;;11.59;100.00;100929.13;4966415;28;20385;-75
2022/05/13 08:01:10;;;;;;;14.17;5.00;;;;;;;11.60;100.00;100933.47;4968028;28;20046;-74
2022/05/13 08:03:35;;;;;;;13.23;5.00;;;;;;;11.78;100.00;100942.19;4982790;28;20050;-74
2022/05/13 08:06:06;;;;;;;16.77;4.97;;;;;;;11.81;100.00;100941.84;4985651;28;20037;-75
2022/05/13 08:08:40;;;;;;;16.95;6.45;;;;;;;11.67;100.00;100942.50;4982937;28;20451;-74
2022/05/13 08:11:07;;;;;;;20.10;6.10;;;;;;;11.61;100.00;100953.84;4973461;28;20038;-75
2022/05/13 08:13:34;;;;;;;13.38;6.03;;;;;;;11.85;100.00;100966.44;4983092;28;20022;-74
2022/05/13 08:16:08;;;;;;;16.45;5.47;;;;;;;11.69;100.00;100959.22;4985258;28;20444;-74
2022/05/13 08:18:34;;;;;;;15.13;5.22;;;;;;;11.70;100.00;100966.25;4982249;28;20048;-73
2022/05/13 08:20:59;;;;;;;12.13;6.53;;;;;;;11.79;100.00;100972.44;4986673;28;20022;-75
2022/05/13 08:23:25;;;;;;;15.98;5.30;;;;;;;11.96;100.00;100970.66;4984917;28;20042;-75
2022/05/13 08:25:51;;;;;;;17.33;6.10;;;;;;;12.09;100.00;100964.81;4982039;28;20043;-74
2022/05/13 08:28:19;;;;;;;11.82;5.38;;;;;;;12.09;100.00;100960.31;4983848;28;20031;-74
2022/05/13 08:30:45;;;;;;;13.60;5.82;;;;;;;12.16;100.00;100961.31;4982277;28;20537;-74
2022/05/13 08:33:11;;;;;;;16.27;4.80;;;;;;;12.23;100.00;100953.44;4984787;28;20120;-75
2022/05/13 08:35:47;;;;;;;14.27;6.43;;;;;;;12.78;100.00;100959.88;4982264;28;20041;-74
2022/05/13 08:38:13;;;;;;;;;;;;;;;12.64;100.00;100911.38;4968082;28;20464;-74
2022/05/13 08:40:49;;;;;;;12.43;5.07;;;;;;;12.56;100.00;100914.06;4983923;28;19939;-74
2022/05/13 08:43:18;;;;;;;11.63;5.63;;;;;;;12.65;100.00;100913.03;4983687;28;20040;-74
2022/05/13 08:45:54;;;;;;;11.07;5.30;;;;;;;12.54;100.00;100921.41;4981664;28;20037;-74
2022/05/13 08:48:34;;;;;;;13.18;5.20;;;;;;;12.37;100.00;100935.88;4987100;28;20041;-75
2022/05/13 08:51:30;;;;;;;12.00;5.30;;;;;;;12.24;100.00;100952.41;4971487;28;20042;-76
2022/05/13 08:54:34;;;;;;;12.60;6.10;;;;;;;12.06;100.00;100984.72;4988567;28;20089;-74
2022/05/13 08:57:10;;;;;;;18.53;5.57;;;;;;;12.14;100.00;101018.69;4959415;28;20034;-75
2022/05/13 08:59:52;;;;;;;12.20;5.93;;;;;;;11.87;100.00;101025.13;4986786;28;20038;-77
2022/05/13 09:02:28;;;;;;;17.95;6.10;;;;;;;12.01;100.00;101048.59;4986689;28;20415;-73
2022/05/13 09:05:05;;;;;;;15.30;5.85;;;;;;;11.87;100.00;101025.13;4986436;28;20042;-73
2022/05/13 09:07:30;;;;;;;12.65;6.32;;;;;;;12.11;100.00;101021.69;4988722;28;20060;-74
2022/05/13 09:10:00;;;;;;;13.75;5.75;;;;;;;12.39;100.00;101019.53;4984999;28;20026;-76
2022/05/13 09:12:50;;;;;;;11.50;5.05;;;;;;;12.87;100.00;101010.56;4982647;28;20049;-74
2022/05/13 09:15:32;;;;;;;15.13;6.25;;;;;;;12.74;100.00;100964.75;4978906;28;20042;-73
2022/05/13 09:18:14;;;;;;;14.27;7.00;;;;;;;13.07;100.00;100973.50;4983526;28;20027;-73
2022/05/13 09:20:48;;;;;;;17.67;6.22;;;;;;;13.25;100.00;100999.22;4981553;28;20050;-74
2022/05/13 09:23:14;;;;;;;17.92;6.43;;;;;;;13.44;100.00;100982.78;4983147;28;20045;-73
2022/05/13 09:25:59;;;;;;;;;;;;;;;13.76;100.00;100948.69;4982428;28;20050;-74
2022/05/13 09:28:26;;;;;;;18.53;6.80;;;;;;;13.93;100.00;100944.06;4984072;28;20000;-74
2022/05/13 09:30:58;;;;;;;17.30;7.40;;;;;;;14.45;100.00;100911.03;4965719;28;20035;-74
2022/05/13 09:33:35;;;;;;;10.40;6.07;;;;;;;15.01;100.00;100910.59;4983837;28;20031;-74
2022/05/13 09:36:22;;;;;;;16.20;5.63;;;;;;;15.58;100.00;100845.19;4968635;28;20133;-75
2022/05/13 09:39:10;;;;;;;17.92;7.10;;;;;;;15.57;100.00;100783.53;4981748;28;20070;-74
2022/05/13 09:41:35;;;;;;;13.55;7.25;;;;;;;16.03;100.00;100794.63;4986618;28;20081;-75
2022/05/13 09:44:12;;;;;;;16.63;6.60;;;;;;;16.03;100.00;100770.41;4976182;28;20034;-74
2022/05/13 09:46:39;;;;;;;;;;;;;;;16.44;97.01;100777.69;4963537;28;20120;-74
2022/05/13 09:49:17;;;;;;;17.52;6.70;;;;;;;17.26;91.71;100756.16;4980608;28;19910;-74
2022/05/13 09:52:20;;;;;;;16.13;6.50;;;;;;;17.86;81.52;100626.53;4980081;28;20035;-74
2022/05/13 09:54:48;;;;;;;11.40;5.53;;;;;;;17.79;83.79;100712.94;4979610;28;20078;-74
2022/05/13 09:57:21;;;;;;;14.55;6.20;;;;;;;17.75;80.26;100627.16;4983493;28;20404;-74
2022/05/13 10:00:01;;;;;;;28.83;6.68;;;;;;;17.19;84.25;100701.38;4964416;28;20034;-74
2022/05/13 10:02:29;;;;;;;20.60;9.63;;;;;;;18.22;83.28;100758.38;4978803;28;20167;-75
2022/05/13 10:05:22;;;;;;;13.98;6.13;;;;;;;16.86;82.46;100635.59;4977864;28;20041;-75
2022/05/13 10:07:51;;;;;;;18.67;6.47;;;;;;;16.06;86.74;100676.78;4974211;28;20130;-75
2022/05/13 10:16:33;;;;;;;11.70;5.88;;;;;;;14.70;100.00;100814.03;4953116;28;20104;-74
2022/05/13 10:19:13;;;;;;;21.60;7.60;;;;;;;14.20;100.00;100891.63;4969604;28;20032;-73
2022/05/13 10:21:46;;;;;;;19.95;9.35;;;;;;;13.81;100.00;101008.03;4985612;28;20114;-74
2022/05/13 10:24:31;;;;;;;18.98;8.25;;;;;;;13.23;100.00;101028.94;4985971;28;20040;-74
2022/05/13 10:27:00;;;;;;;15.95;7.95;;;;;;;13.77;100.00;101086.41;4987006;28;20030;-74
2022/05/13 10:29:37;;;;;;;16.88;7.57;;;;;;;14.55;100.00;101045.94;4985904;28;20026;-75
2022/05/13 10:32:11;;;;;;;29.15;9.43;;;;;;;14.76;100.00;101045.25;4970360;28;20096;-74
2022/05/13 10:34:43;;;;;;;14.52;8.13;;;;;;;14.39;100.00;100991.50;4969635;28;20044;-75
2022/05/13 10:37:18;;;;;;;16.85;9.15;;;;;;;14.75;100.00;101011.34;4985922;28;20792;-74
2022/05/13 10:39:47;;;;;;;14.18;7.93;;;;;;;14.87;100.00;101019.81;4967815;28;20038;-76
2022/05/13 10:42:20;;;;;;;17.30;7.40;;;;;;;15.05;100.00;100980.94;4985628;28;20045;-74
2022/05/13 10:45:05;;;;;;;20.42;7.57;;;;;;;15.12;100.00;100998.00;4985129;28;20034;-75
2022/05/13 10:47:41;;;;;;;19.55;7.43;;;;;;;14.49;100.00;100927.59;4984078;28;20663;-74
2022/05/13 10:50:33;;;;;;;15.73;7.93;;;;;;;14.36;100.00;100977.41;4984831;28;20030;-75
2022/05/13 10:53:02;;;;;;;17.35;7.45;;;;;;;14.45;100.00;100993.47;4986547;28;20092;-74
2022/05/13 10:56:05;;;;;;;15.00;7.63;;;;;;;14.75;100.00;101032.84;4985523;28;20520;-75
2022/05/13 10:58:52;;;;;;;21.45;5.30;;;;;;;15.07;100.00;100952.03;4983986;28;20439;-74
2022/05/13 11:01:45;;;;;;;10.00;2.35;;;;;;;15.12;100.00;100775.63;4973692;28;20058;-74
2022/05/13 11:04:29;;;;;;;6.72;1.98;;;;;;;15.00;97.43;100680.41;4956593;28;20464;-74
2022/05/13 11:07:10;;;;;;;10.40;2.60;;;;;;;14.81;97.19;100679.19;4986708;28;20085;-74
2022/05/13 11:09:50;;;;;;;4.65;1.50;;;;;;;14.93;91.96;100656.13;4985265;28;20042;-74
2022/05/13 11:12:38;;;;;;;8.50;2.20;;;;;;;15.10;97.83;100775.03;4984920;28;20526;-75
2022/05/13 11:15:10;;;;;;;10.25;3.80;;;;;;;15.36;95.76;100776.31;4970560;28;20033;-74
2022/05/13 11:17:50;;;;;;;10.90;2.42;;;;;;;15.67;90.03;100716.72;4969296;28;20066;-75
2022/05/13 11:20:38;;;;;;;8.20;2.67;;;;;;;16.50;89.08;100770.66;4986179;28;20041;-74
2022/05/13 11:23:42;;;;;;;5.53;2.00;;;;;;;16.61;83.57;100701.88;4973967;28;20030;-74
2022/05/13 11:26:19;;;;;;;7.82;2.38;;;;;;;17.63;84.09;100802.47;4976725;28;20033;-75
2022/05/13 11:28:53;;;;;;;7.65;2.42;;;;;;;17.14;82.48;100710.09;4987500;28;20026;-74
2022/05/13 11:31:19;;;;;;;9.07;2.95;;;;;;;17.19;84.95;100769.66;4990060;28;20034;-75
2022/05/13 11:33:59;;;;;;;10.67;3.17;;;;;;;16.83;81.12;100689.94;4987842;28;20037;-74
2022/05/13 11:36:37;;;;;;;13.23;3.20;;;;;;;17.53;82.82;100792.09;4989488;28;20026;-74
2022/05/13 11:39:20;;;;;;;6.72;2.65;;;;;;;16.67;87.58;100798.94;4965323;28;20212;-74
2022/05/13 11:41:55;;;;;;;7.60;1.63;;;;;;;15.99;85.26;100709.91;4971382;28;20042;-74
2022/05/13 11:44:29;;;;;;;4.97;1.48;;;;;;;15.64;83.04;100655.22;4989076;28;20042;-75
2022/05/13 11:46:58;;;;;;;3.50;2.75;;;;;;;16.18;85.59;100777.56;4972136;28;20034;-74
2022/05/13 11:49:33;;;;;;;4.32;1.42;;;;;;;16.68;79.47;100700.03;4990017;28;20093;-74
2022/05/13 11:52:28;;;;;;;8.43;3.08;;;;;;;17.94;76.70;100766.75;4988315;28;20034;-75
2022/05/13 11:55:32;;;;;;;7.15;1.67;;;;;;;19.15;74.27;100794.97;4988848;28;20512;-74
2022/05/13 11:57:58;;;;;;;7.13;1.80;;;;;;;17.85;69.39;100538.47;4988117;28;20037;-74
2022/05/13 12:00:36;;;;;;;6.67;1.57;;;;;;;17.81;73.65;100701.97;4987190;28;20042;-74
2022/05/13 12:03:08;;;;;;;11.43;2.00;;;;;;;17.72;74.48;100699.47;4988025;28;20183;-74